Huvudsida
METAR-TAF:

METAR-TAF

Flygplatser :

Okayama, Japan

latitud: 34-45N, longitud: 133-51E, höjd: 241 m

Aktuellt väderrapport

Denna rapport gjordes för 59 minuter sedan, klockan 22:00 UTC
Vind 7 kt från nordost
Temperatur 23°C
Fuktighet 94%
Tryck 1008 hPa
Sikt 10 km eller mer
Få moln på en höjd av 700 ft
Brutna moln

METAR: RJOB 122200Z 05007KT 9999 FEW007 BKN/// 23/22 Q1008

Tid: 07:59 (22:59 UTC)

Väderprognos

Denna rapport gjordes för 5 timmar och 53 minuter sedan, klockan 17:06 UTC
Prognos gäller från 12 kl. 18 UTC till 14 kl. 00 UTC
Vind 5 kt från ost/nordost
Sikt 10 km eller mer
Få moln på en höjd av 1500 ft
Spridda moln på en höjd av 3500 ft
Blir
från 13 kl. 09 UTC till 13 kl. 12 UTC
Vind 4 kt från väst/nordväst

TAF: RJOB 121706Z 1218/1400 06005KT 9999 FEW015 SCT035 BECMG 1309/1312 30004KT

Aktuella väderrapporter och prognoser från 4000 flygplatser (METAR- och TAF-rapporter).

De tillgängliga stationerna syns som gula och röda prickar på kartan.

För musen över prickarna för att se namnen på stationerna.

Klicka sedan för att få väderrapporter och prognoser.

För att ändra kartan: Klicka på de gröna knapparna med ett svart kors på för att zooma in; den gröna knappen med ett streck på för att zooma ut; eller på de gröna pilarna för angränsande kartor.


METAR-TAF: